createdAt,value
2022-10-10T00:01:53.220Z,11.83
2022-10-10T00:04:57.178Z,11.88
2022-10-10T00:08:02.686Z,11.92
2022-10-10T00:11:07.645Z,11.94
2022-10-10T00:14:11.394Z,11.95
2022-10-10T00:17:15.022Z,11.95
2022-10-10T00:20:20.665Z,11.96
2022-10-10T00:23:28.469Z,11.95
2022-10-10T00:26:31.562Z,11.99
2022-10-10T00:29:34.207Z,12.01
2022-10-10T00:32:37.618Z,12.01
2022-10-10T00:35:40.661Z,12.07
2022-10-10T00:38:44.654Z,12.11
2022-10-10T00:41:47.293Z,12.13
2022-10-10T00:45:21.930Z,12.12
2022-10-10T00:48:27.045Z,12.13
2022-10-10T00:51:30.006Z,12.12
2022-10-10T00:54:34.753Z,12.12
2022-10-10T00:57:37.414Z,12.11
2022-10-10T01:00:40.132Z,12.15
2022-10-10T01:03:42.866Z,12.20
2022-10-10T01:06:45.655Z,12.19
2022-10-10T01:09:52.977Z,12.21
2022-10-10T01:13:11.837Z,12.25
2022-10-10T01:16:20.749Z,12.31
2022-10-10T01:19:50.294Z,12.33
2022-10-10T01:23:13.724Z,12.34
2022-10-10T01:26:38.912Z,12.38
2022-10-10T01:29:46.487Z,12.36
2022-10-10T01:32:54.306Z,12.34
2022-10-10T01:36:04.912Z,12.33
2022-10-10T01:39:14.611Z,12.33
2022-10-10T01:42:23.889Z,12.34
2022-10-10T01:45:31.366Z,12.32
2022-10-10T01:48:34.045Z,12.30
2022-10-10T01:51:54.745Z,12.25
2022-10-10T01:55:13.261Z,12.20
2022-10-10T01:58:30.332Z,12.21
2022-10-10T02:01:42.229Z,12.19
2022-10-10T02:04:50.805Z,12.16
2022-10-10T02:07:57.972Z,12.19
2022-10-10T02:11:03.993Z,12.18
2022-10-10T02:14:12.961Z,12.19
2022-10-10T02:17:18.504Z,12.16
2022-10-10T02:20:28.389Z,12.20
2022-10-10T02:23:31.382Z,12.20
2022-10-10T02:26:35.997Z,12.22
2022-10-10T02:29:41.757Z,12.24
2022-10-10T02:32:49.636Z,12.23
2022-10-10T02:35:54.454Z,12.21
2022-10-10T02:38:59.350Z,12.21
2022-10-10T02:42:03.318Z,12.16
2022-10-10T02:45:07.433Z,12.18
2022-10-10T02:48:11.645Z,12.17
2022-10-10T02:51:16.733Z,12.12
2022-10-10T02:54:19.371Z,12.12
2022-10-10T02:57:22.033Z,12.08
2022-10-10T03:00:24.691Z,12.06
2022-10-10T03:03:28.685Z,12.03
2022-10-10T03:06:31.327Z,12.00
2022-10-10T03:09:34.703Z,11.96
2022-10-10T03:12:37.658Z,11.91
2022-10-10T03:15:40.265Z,11.92
2022-10-10T03:18:44.602Z,11.92
2022-10-10T03:21:47.242Z,11.86
2022-10-10T03:24:49.879Z,11.83
2022-10-10T03:27:52.551Z,11.78
2022-10-10T03:30:55.258Z,11.78
2022-10-10T03:33:59.544Z,11.77
2022-10-10T03:37:02.133Z,11.74
2022-10-10T03:40:05.403Z,11.68
2022-10-10T03:43:08.154Z,11.65
2022-10-10T03:46:15.818Z,11.65
2022-10-10T03:49:20.398Z,11.64
2022-10-10T03:52:23.005Z,11.63
2022-10-10T03:55:25.653Z,11.59
2022-10-10T03:58:28.275Z,11.58
2022-10-10T04:01:31.649Z,11.56
2022-10-10T04:04:35.812Z,11.54
2022-10-10T04:07:38.563Z,11.51
2022-10-10T04:10:41.570Z,11.55
2022-10-10T04:13:44.173Z,11.56
2022-10-10T04:16:46.877Z,11.57
2022-10-10T04:19:50.812Z,11.57
2022-10-10T04:22:53.773Z,11.55
2022-10-10T04:25:56.678Z,11.49
2022-10-10T04:28:59.645Z,11.50
2022-10-10T04:32:02.283Z,11.48
2022-10-10T04:35:06.630Z,11.49
2022-10-10T04:38:09.265Z,11.49
2022-10-10T04:41:11.905Z,11.42
2022-10-10T04:44:14.565Z,11.39
2022-10-10T04:47:18.025Z,11.36
2022-10-10T04:50:22.278Z,11.35
2022-10-10T04:53:25.284Z,11.30
2022-10-10T04:56:28.065Z,11.23
2022-10-10T04:59:30.752Z,11.21
2022-10-10T05:02:33.693Z,11.19
2022-10-10T05:05:37.982Z,11.21
2022-10-10T05:08:40.862Z,11.19
2022-10-10T05:11:43.494Z,11.20
2022-10-10T05:14:48.250Z,11.13
2022-10-10T05:17:51.082Z,11.16
2022-10-10T05:20:57.679Z,11.22
2022-10-10T05:24:04.094Z,11.24
2022-10-10T05:27:06.886Z,11.26
2022-10-10T05:30:10.327Z,11.24
2022-10-10T05:33:14.829Z,11.22
2022-10-10T05:36:23.378Z,11.24
2022-10-10T05:39:27.387Z,11.22
2022-10-10T05:42:36.543Z,11.25
2022-10-10T05:45:39.142Z,11.26
2022-10-10T05:48:41.776Z,11.24
2022-10-10T05:51:45.749Z,11.24
2022-10-10T05:54:48.489Z,11.28
2022-10-10T05:57:51.163Z,11.32
2022-10-10T06:00:53.892Z,11.32
2022-10-10T06:03:56.789Z,11.41
2022-10-10T06:07:00.765Z,11.46
2022-10-10T06:10:03.431Z,11.51
2022-10-10T06:13:06.084Z,11.55
2022-10-10T06:16:08.710Z,11.61
2022-10-10T06:19:14.942Z,11.94
2022-10-10T06:22:19.272Z,12.74
2022-10-10T06:25:38.870Z,13.63
2022-10-10T06:28:43.080Z,14.16
2022-10-10T06:31:45.830Z,14.05
2022-10-10T06:34:48.523Z,13.91
2022-10-10T06:37:52.554Z,13.70
2022-10-10T06:41:00.286Z,13.52
2022-10-10T06:44:03.938Z,13.33
2022-10-10T06:47:06.633Z,13.19
2022-10-10T06:50:09.859Z,13.11
2022-10-10T06:53:13.911Z,13.07
2022-10-10T06:56:26.282Z,13.02
2022-10-10T06:59:30.587Z,13.01
2022-10-10T07:02:33.239Z,13.06
2022-10-10T07:05:35.918Z,13.19
2022-10-10T07:08:41.088Z,13.27
2022-10-10T07:11:45.365Z,13.32
2022-10-10T07:14:48.390Z,13.34
2022-10-10T07:17:58.030Z,13.37
2022-10-10T07:21:02.840Z,13.39
2022-10-10T07:24:07.566Z,13.43
2022-10-10T07:27:11.421Z,13.48
2022-10-10T07:30:15.004Z,13.49
2022-10-10T07:33:17.813Z,13.49
2022-10-10T07:36:20.740Z,13.55
2022-10-10T07:39:26.160Z,13.57
2022-10-10T07:42:28.946Z,13.57
2022-10-10T07:45:31.666Z,13.60
2022-10-10T07:48:34.496Z,13.65
2022-10-10T07:51:38.390Z,13.72
2022-10-10T07:54:42.613Z,13.83
2022-10-10T07:57:47.002Z,13.94
2022-10-10T08:00:51.539Z,14.04
2022-10-10T08:03:56.803Z,14.17
2022-10-10T08:06:59.450Z,14.26
2022-10-10T08:10:03.477Z,14.34
2022-10-10T08:13:06.128Z,14.40
2022-10-10T08:16:09.481Z,14.42
2022-10-10T08:22:15.128Z,14.48
2022-10-10T08:25:19.380Z,14.51
2022-10-10T08:28:22.110Z,14.55
2022-10-10T08:31:24.948Z,14.63
2022-10-10T08:34:27.542Z,14.71
2022-10-10T08:37:36.450Z,14.72
2022-10-10T08:40:47.547Z,14.80
2022-10-10T08:43:55.182Z,14.93
2022-10-10T08:47:00.254Z,15.11
2022-10-10T08:50:07.124Z,15.18
2022-10-10T08:53:16.313Z,15.26
2022-10-10T08:56:27.015Z,15.34
2022-10-10T08:59:36.378Z,15.42
2022-10-10T09:02:53.776Z,15.56
2022-10-10T09:06:14.699Z,15.73
2022-10-10T09:09:27.031Z,15.99
2022-10-10T09:12:39.400Z,16.20
2022-10-10T09:15:52.502Z,16.47
2022-10-10T09:19:00.599Z,16.67
2022-10-10T09:22:09.417Z,16.79
2022-10-10T09:25:19.156Z,16.81
2022-10-10T09:28:36.810Z,16.75
2022-10-10T09:31:43.322Z,16.69
2022-10-10T09:34:49.462Z,16.90
2022-10-10T09:37:58.226Z,17.34
2022-10-10T09:41:05.154Z,17.50
2022-10-10T09:44:13.409Z,17.75
2022-10-10T09:47:17.709Z,17.97
2022-10-10T09:50:21.110Z,18.08
2022-10-10T09:53:24.018Z,18.16
2022-10-10T09:56:28.908Z,18.22
2022-10-10T09:59:41.193Z,18.22
2022-10-10T10:02:43.872Z,18.21
2022-10-10T10:05:54.916Z,18.13
2022-10-10T10:09:02.691Z,18.11
2022-10-10T10:12:07.304Z,18.08
2022-10-10T10:15:19.622Z,18.07
2022-10-10T10:18:27.575Z,18.06
2022-10-10T10:21:31.345Z,18.04
2022-10-10T10:24:36.537Z,18.02
2022-10-10T10:27:39.231Z,18.02
2022-10-10T10:30:44.426Z,18.01
2022-10-10T10:33:57.918Z,18.07
2022-10-10T10:37:09.395Z,18.12
2022-10-10T10:40:27.678Z,18.14
2022-10-10T10:44:21.157Z,18.20
2022-10-10T10:47:38.634Z,18.21
2022-10-10T10:50:49.657Z,18.27
2022-10-10T10:54:00.114Z,18.25
2022-10-10T10:57:07.192Z,18.38
2022-10-10T11:00:41.321Z,18.61
2022-10-10T11:05:15.791Z,18.88
2022-10-10T11:07:20.347Z,19.02
2022-10-10T11:10:31.482Z,19.14
2022-10-10T11:13:42.542Z,19.27
2022-10-10T11:16:50.028Z,19.44
2022-10-10T11:19:59.462Z,19.62
2022-10-10T11:23:08.999Z,19.69
2022-10-10T11:26:18.625Z,19.75
2022-10-10T11:29:25.546Z,19.86
2022-10-10T11:32:34.130Z,19.99
2022-10-10T11:35:41.870Z,20.10
2022-10-10T11:38:49.982Z,20.16
2022-10-10T11:41:57.241Z,20.25
2022-10-10T11:45:05.380Z,20.36
2022-10-10T11:48:19.009Z,20.44
2022-10-10T11:51:32.205Z,20.58
2022-10-10T11:54:40.545Z,20.73
2022-10-10T11:57:48.178Z,20.89
2022-10-10T12:00:55.827Z,21.04
2022-10-10T12:03:58.656Z,21.22
2022-10-10T12:07:06.342Z,21.35
2022-10-10T12:10:14.673Z,21.55
2022-10-10T12:13:28.650Z,21.77
2022-10-10T12:16:35.715Z,21.88
2022-10-10T12:19:38.516Z,21.76
2022-10-10T12:22:43.402Z,21.53
2022-10-10T12:25:51.183Z,21.52
2022-10-10T12:29:06.490Z,21.36
2022-10-10T12:32:29.148Z,21.18
2022-10-10T12:35:39.889Z,21.00
2022-10-10T12:39:24.182Z,20.85
2022-10-10T12:42:31.282Z,20.67
2022-10-10T12:45:58.974Z,20.51
2022-10-10T12:49:18.452Z,20.40
2022-10-10T12:52:27.977Z,20.23
2022-10-10T12:55:42.690Z,20.01
2022-10-10T12:58:51.334Z,19.82
2022-10-10T13:02:06.071Z,19.84
2022-10-10T13:05:15.916Z,20.00
2022-10-10T13:08:26.582Z,20.27
2022-10-10T13:11:33.130Z,20.53
2022-10-10T13:14:42.595Z,20.71
2022-10-10T13:17:47.509Z,20.93
2022-10-10T13:20:52.598Z,21.01
2022-10-10T13:24:03.560Z,21.04
2022-10-10T13:27:20.649Z,21.13
2022-10-10T13:30:27.414Z,21.20
2022-10-10T13:33:35.805Z,21.20
2022-10-10T13:36:40.959Z,21.22
2022-10-10T13:39:46.672Z,21.20
2022-10-10T13:42:53.581Z,21.17
2022-10-10T13:46:00.877Z,21.13
2022-10-10T13:49:22.474Z,21.10
2022-10-10T13:52:29.531Z,21.09
2022-10-10T13:55:40.559Z,21.07
2022-10-10T13:58:49.752Z,21.10
2022-10-10T14:02:01.696Z,21.08
2022-10-10T14:05:09.443Z,21.05
2022-10-10T14:08:19.183Z,21.05
2022-10-10T14:11:28.731Z,21.09
2022-10-10T14:14:46.242Z,21.20
2022-10-10T14:17:51.105Z,21.54
2022-10-10T14:20:56.580Z,21.93
2022-10-10T14:24:01.828Z,22.18
2022-10-10T14:27:17.010Z,22.52
2022-10-10T14:30:23.700Z,22.82
2022-10-10T14:33:31.042Z,22.81
2022-10-10T14:36:36.558Z,22.37
2022-10-10T14:39:41.641Z,22.05
2022-10-10T14:42:48.300Z,21.68
2022-10-10T14:45:55.764Z,21.38
2022-10-10T14:49:02.006Z,21.06
2022-10-10T14:52:09.038Z,20.76
2022-10-10T14:55:14.583Z,20.54
2022-10-10T14:58:21.710Z,20.38
2022-10-10T15:01:29.072Z,20.22
2022-10-10T15:04:34.072Z,20.08
2022-10-10T15:07:38.914Z,19.96
2022-10-10T15:10:45.096Z,19.83
2022-10-10T15:13:50.429Z,19.72
2022-10-10T15:16:57.130Z,19.65
2022-10-10T15:20:01.981Z,19.57
2022-10-10T15:23:09.354Z,19.49
2022-10-10T15:26:14.192Z,19.45
2022-10-10T15:29:18.855Z,19.40
2022-10-10T15:32:25.330Z,19.38
2022-10-10T15:35:50.249Z,19.38
2022-10-10T15:38:55.872Z,19.37
2022-10-10T15:42:09.410Z,19.35
2022-10-10T15:45:36.997Z,19.31
2022-10-10T15:48:45.207Z,19.25
2022-10-10T15:51:50.388Z,19.20
2022-10-10T15:54:56.236Z,19.10
2022-10-10T15:58:03.934Z,19.00
2022-10-10T16:01:14.973Z,18.87
2022-10-10T16:04:22.918Z,18.75
2022-10-10T16:09:16.415Z,18.62
2022-10-10T16:12:09.041Z,18.47
2022-10-10T16:15:13.991Z,18.38
2022-10-10T16:18:18.978Z,18.28
2022-10-10T16:21:26.322Z,18.17
2022-10-10T16:24:31.474Z,18.06
2022-10-10T16:27:38.150Z,18.01
2022-10-10T16:30:43.278Z,17.87
2022-10-10T16:33:48.626Z,17.76
2022-10-10T16:36:54.807Z,17.66
2022-10-10T16:40:01.410Z,17.56
2022-10-10T16:43:06.838Z,17.48
2022-10-10T16:46:14.265Z,17.41
2022-10-10T16:49:21.262Z,17.35
2022-10-10T16:52:27.979Z,17.30
2022-10-10T16:55:32.701Z,17.25
2022-10-10T16:58:39.934Z,17.18
2022-10-10T17:01:44.898Z,17.10
2022-10-10T17:04:49.716Z,17.03
2022-10-10T17:07:56.689Z,16.91
2022-10-10T17:11:03.299Z,16.79
2022-10-10T17:14:08.471Z,16.68
2022-10-10T17:17:15.577Z,16.60
2022-10-10T17:20:21.394Z,16.48
2022-10-10T17:23:28.124Z,16.40
2022-10-10T17:26:33.363Z,16.34
2022-10-10T17:29:38.351Z,16.34
2022-10-10T17:32:43.865Z,16.25
2022-10-10T17:35:50.948Z,16.19
2022-10-10T17:39:00.464Z,16.18
2022-10-10T17:42:04.592Z,16.20
2022-10-10T17:45:08.303Z,16.22
2022-10-10T17:48:10.947Z,16.20
2022-10-10T17:51:15.435Z,16.26
2022-10-10T17:54:19.906Z,16.26
2022-10-10T17:57:22.562Z,16.27
2022-10-10T18:00:25.926Z,16.27
2022-10-10T18:03:28.697Z,16.27
2022-10-10T18:06:32.876Z,16.26
2022-10-10T18:09:36.860Z,16.23
2022-10-10T18:12:39.827Z,16.24
2022-10-10T18:15:42.438Z,16.21
2022-10-10T18:18:50.626Z,16.41
2022-10-10T18:21:53.906Z,16.57
2022-10-10T18:25:00.335Z,16.73
2022-10-10T18:28:05.041Z,16.87
2022-10-10T18:31:13.522Z,16.87
2022-10-10T18:34:20.204Z,16.77
2022-10-10T18:37:25.147Z,16.61
2022-10-10T18:40:31.660Z,16.45
2022-10-10T18:43:36.477Z,16.33
2022-10-10T18:46:41.795Z,16.19
2022-10-10T18:49:46.575Z,16.08
2022-10-10T18:52:53.872Z,16.07
2022-10-10T18:56:01.279Z,15.93
2022-10-10T18:59:09.578Z,15.83
2022-10-10T19:02:14.797Z,15.73
2022-10-10T19:05:20.135Z,15.61
2022-10-10T19:08:26.857Z,15.50
2022-10-10T19:11:34.976Z,15.43
2022-10-10T19:14:40.405Z,15.38
2022-10-10T19:17:45.090Z,15.34
2022-10-10T19:20:50.320Z,15.37
2022-10-10T19:23:55.325Z,15.38
2022-10-10T19:27:01.506Z,15.47
2022-10-10T19:30:06.521Z,15.53
2022-10-10T19:33:11.925Z,15.54
2022-10-10T19:36:16.763Z,15.57
2022-10-10T19:39:22.297Z,15.57
2022-10-10T19:42:31.540Z,15.48
2022-10-10T19:45:41.740Z,15.44
2022-10-10T19:48:46.722Z,15.44
2022-10-10T19:51:52.349Z,15.41
2022-10-10T19:54:57.235Z,15.42
2022-10-10T19:58:02.033Z,15.49
2022-10-10T20:01:07.773Z,15.44
2022-10-10T20:04:10.419Z,15.44
2022-10-10T20:07:13.126Z,15.45
2022-10-10T20:10:15.821Z,15.46
2022-10-10T20:13:20.260Z,15.45
2022-10-10T20:16:24.115Z,15.46
2022-10-10T20:19:27.449Z,15.51
2022-10-10T20:22:30.114Z,15.52
2022-10-10T20:25:32.754Z,15.55
2022-10-10T20:28:36.935Z,15.53
2022-10-10T20:31:40.402Z,15.52
2022-10-10T20:34:43.083Z,15.51
2022-10-10T20:37:46.006Z,15.47
2022-10-10T20:40:48.719Z,15.49
2022-10-10T20:43:58.022Z,15.45
2022-10-10T20:47:00.646Z,15.44
2022-10-10T20:50:03.277Z,15.40
2022-10-10T20:53:05.979Z,15.36
2022-10-10T20:56:11.459Z,15.33
2022-10-10T20:59:15.450Z,15.31
2022-10-10T21:02:19.513Z,15.26
2022-10-10T21:05:22.314Z,15.27
2022-10-10T21:08:25.384Z,15.29
2022-10-10T21:11:28.329Z,15.26
2022-10-10T21:14:32.419Z,15.24
2022-10-10T21:17:35.050Z,15.21
2022-10-10T21:20:37.662Z,15.15
2022-10-10T21:23:43.636Z,15.08
2022-10-10T21:26:49.064Z,15.02
2022-10-10T21:29:53.087Z,14.92
2022-10-10T21:32:55.739Z,14.87
2022-10-10T21:35:59.431Z,14.83
2022-10-10T21:39:11.379Z,14.79
2022-10-10T21:42:20.941Z,14.76
2022-10-10T21:45:29.997Z,14.75
2022-10-10T21:48:38.406Z,14.76
2022-10-10T21:51:46.927Z,14.76
2022-10-10T21:54:55.430Z,14.81
2022-10-10T21:58:01.882Z,14.82
2022-10-10T22:01:16.309Z,14.81
2022-10-10T22:04:28.633Z,14.81
2022-10-10T22:07:38.759Z,14.83
2022-10-10T22:10:46.029Z,14.82
2022-10-10T22:13:55.115Z,14.81
2022-10-10T22:17:01.637Z,14.82
2022-10-10T22:20:05.238Z,14.82
2022-10-10T22:23:08.184Z,14.88
2022-10-10T22:26:12.965Z,14.87
2022-10-10T22:29:15.626Z,14.88
2022-10-10T22:32:19.627Z,14.84
2022-10-10T22:35:22.255Z,14.83
2022-10-10T22:38:24.990Z,14.83
2022-10-10T22:41:27.653Z,14.83
2022-10-10T22:44:30.290Z,14.82
2022-10-10T22:47:34.256Z,14.82
2022-10-10T22:50:36.899Z,14.79
2022-10-10T22:53:40.705Z,14.83
2022-10-10T22:56:43.329Z,14.87
2022-10-10T22:59:46.309Z,14.86
2022-10-10T23:02:50.260Z,14.83
2022-10-10T23:05:52.896Z,14.84
2022-10-10T23:08:55.521Z,14.83
2022-10-10T23:11:58.109Z,14.82
2022-10-10T23:15:00.740Z,14.84
2022-10-10T23:18:05.705Z,14.87
2022-10-10T23:21:08.332Z,14.87
2022-10-10T23:24:10.969Z,14.85
2022-10-10T23:27:13.726Z,14.82
2022-10-10T23:30:16.929Z,14.80
2022-10-10T23:33:20.931Z,14.80
2022-10-10T23:36:23.505Z,14.79
2022-10-10T23:39:26.522Z,14.76
2022-10-10T23:42:29.153Z,14.80
2022-10-10T23:45:32.056Z,14.78
2022-10-10T23:48:36.085Z,14.77
2022-10-10T23:51:38.726Z,14.72
2022-10-10T23:54:41.410Z,14.70
2022-10-10T23:57:44.394Z,14.61
